Time;durP1;ratioP1;P1;durP2;ratioP2;P2;SDS_P1;SDS_P2;PMS_P1;PMS_P2;Temp;Humidity;BMP_temperature;BMP_pressure;BME280_temperature;BME280_humidity;BME280_pressure;Samples;Min_cycle;Max_cycle;Signal;HPM_P1;HPM_P2
2022/03/23 00:00:05;;;;;;;9.47;7.60;;;3.90;90.40;;;;;;5062751;28;20297;-71
2022/03/23 00:02:31;;;;;;;11.27;8.27;;;3.80;90.90;;;;;;5065772;28;20598;-71
2022/03/23 00:04:56;;;;;;;9.80;7.53;;;3.80;91.20;;;;;;5068611;28;20252;-71
2022/03/23 00:07:22;;;;;;;8.30;7.37;;;3.80;91.60;;;;;;5067127;28;20514;-71
2022/03/23 00:09:48;;;;;;;9.80;8.10;;;3.80;91.80;;;;;;5063521;28;20207;-72
2022/03/23 00:12:15;;;;;;;10.23;8.27;;;3.80;92.00;;;;;;5070975;28;20211;-71
2022/03/23 00:14:40;;;;;;;8.67;7.70;;;3.70;92.20;;;;;;5067774;28;20195;-71
2022/03/23 00:17:06;;;;;;;10.17;7.80;;;3.60;92.60;;;;;;5071558;28;20277;-71
2022/03/23 00:19:31;;;;;;;9.17;7.93;;;3.60;92.80;;;;;;5065955;28;20608;-70
2022/03/23 00:21:57;;;;;;;9.40;8.20;;;3.60;93.10;;;;;;5069952;28;20240;-72
2022/03/23 00:24:23;;;;;;;9.20;7.97;;;3.70;93.10;;;;;;5066338;28;20285;-72
2022/03/23 00:26:49;;;;;;;8.97;7.90;;;3.60;93.00;;;;;;5064159;28;20273;-71
2022/03/23 00:29:14;;;;;;;10.60;7.77;;;3.60;92.90;;;;;;5061118;28;20685;-71
2022/03/23 00:31:40;;;;;;;9.37;8.37;;;3.60;93.00;;;;;;5071234;28;20174;-72
2022/03/23 00:34:05;;;;;;;9.20;7.90;;;3.50;93.70;;;;;;5062698;28;20200;-72
2022/03/23 00:36:31;;;;;;;8.03;7.23;;;3.30;94.60;;;;;;5065475;28;20689;-72
2022/03/23 00:38:57;;;;;;;10.67;8.47;;;3.30;94.50;;;;;;5068025;28;20209;-72
2022/03/23 00:41:22;;;;;;;10.23;7.67;;;3.20;95.10;;;;;;5065484;28;20241;-71
2022/03/23 00:43:48;;;;;;;8.67;7.07;;;3.20;94.90;;;;;;5058553;28;20192;-72
2022/03/23 00:46:15;;;;;;;9.10;7.80;;;3.20;95.30;;;;;;5067074;28;20179;-72
2022/03/23 00:48:41;;;;;;;9.47;7.23;;;3.20;94.90;;;;;;5066998;28;20248;-71
2022/03/23 00:51:07;;;;;;;7.73;6.90;;;3.10;95.10;;;;;;5062672;28;20179;-71
2022/03/23 00:53:32;;;;;;;7.90;7.10;;;3.20;95.10;;;;;;5066532;28;20194;-71
2022/03/23 00:55:58;;;;;;;9.97;8.53;;;3.20;94.90;;;;;;5069897;28;20282;-71
2022/03/23 00:58:24;;;;;;;9.50;7.00;;;3.20;94.90;;;;;;5064451;28;20206;-71
2022/03/23 01:00:50;;;;;;;9.73;7.27;;;3.20;95.10;;;;;;5068121;28;20179;-71
2022/03/23 01:03:15;;;;;;;10.33;7.63;;;3.10;95.50;;;;;;5068124;28;20667;-71
2022/03/23 01:05:41;;;;;;;10.23;7.90;;;3.10;96.10;;;;;;5069334;28;20198;-72
2022/03/23 01:08:06;;;;;;;11.93;7.60;;;3.00;96.50;;;;;;5066226;28;20638;-71
2022/03/23 01:10:34;;;;;;;7.97;7.17;;;2.90;96.90;;;;;;5062291;28;20278;-71
2022/03/23 01:13:00;;;;;;;10.63;7.70;;;2.70;97.90;;;;;;5057409;28;20213;-72
2022/03/23 01:15:26;;;;;;;9.33;7.80;;;2.70;98.30;;;;;;5055312;28;20202;-71
2022/03/23 01:17:52;;;;;;;7.97;7.10;;;2.60;99.30;;;;;;5064727;28;20256;-71
2022/03/23 01:20:22;;;;;;;8.97;7.33;;;2.60;99.40;;;;;;5066116;28;20447;-73
2022/03/23 01:22:49;;;;;;;9.17;8.10;;;2.70;99.60;;;;;;5056248;28;20828;-71
2022/03/23 01:25:16;;;;;;;10.03;8.47;;;2.60;99.90;;;;;;5064654;28;20289;-73
2022/03/23 01:27:43;;;;;;;9.17;7.77;;;2.50;99.90;;;;;;5057232;28;20238;-72
2022/03/23 01:30:11;;;;;;;9.70;7.80;;;2.40;99.90;;;;;;5054797;28;20238;-70
2022/03/23 01:32:38;;;;;;;8.40;7.60;;;2.30;99.90;;;;;;5067065;28;20172;-72
2022/03/23 01:35:05;;;;;;;7.77;6.90;;;2.30;99.90;;;;;;5062955;28;20195;-71
2022/03/23 01:37:31;;;;;;;8.93;7.07;;;2.30;99.90;;;;;;5063753;28;20218;-71
2022/03/23 01:39:57;;;;;;;7.50;6.80;;;2.30;99.90;;;;;;5065229;28;20190;-71
2022/03/23 01:42:23;;;;;;;9.03;8.00;;;2.20;99.90;;;;;;5067812;28;20179;-71
2022/03/23 01:44:49;;;;;;;10.67;8.53;;;2.10;99.90;;;;;;5063965;28;20203;-71
2022/03/23 01:47:16;;;;;;;13.90;8.40;;;2.00;99.90;;;;;;5067034;28;20297;-71
2022/03/23 01:49:52;;;;;;;8.67;7.57;;;2.00;99.90;;;;;;5064009;28;20183;-71
2022/03/23 01:52:20;;;;;;;9.43;7.43;;;1.90;99.90;;;;;;5062460;28;20304;-71
2022/03/23 01:54:46;;;;;;;9.53;7.67;;;1.90;99.90;;;;;;5061744;28;20247;-71
2022/03/23 01:57:16;;;;;;;10.83;7.63;;;1.90;99.90;;;;;;5071306;28;20277;-72
2022/03/23 01:59:43;;;;;;;7.53;6.73;;;1.90;99.90;;;;;;5068890;28;20253;-72
2022/03/23 02:02:09;;;;;;;8.43;6.97;;;1.90;99.90;;;;;;5064127;28;20185;-71
2022/03/23 02:04:35;;;;;;;11.27;8.07;;;2.00;99.90;;;;;;5066692;28;20223;-71
2022/03/23 02:07:01;;;;;;;8.47;7.43;;;2.00;99.90;;;;;;5070540;28;20223;-70
2022/03/23 02:09:28;;;;;;;8.27;7.37;;;2.00;99.90;;;;;;5065177;28;20195;-70
2022/03/23 02:11:54;;;;;;;9.23;7.37;;;2.00;99.90;;;;;;5064681;28;20255;-70
2022/03/23 02:14:20;;;;;;;9.77;7.27;;;2.00;99.90;;;;;;5061775;28;20238;-70
2022/03/23 02:16:50;;;;;;;10.20;7.90;;;2.00;99.90;;;;;;5067630;28;20172;-70
2022/03/23 02:19:17;;;;;;;8.60;7.53;;;1.90;99.90;;;;;;5069199;28;20188;-70
2022/03/23 02:21:44;;;;;;;9.70;8.13;;;1.90;99.90;;;;;;5071868;28;20183;-71
2022/03/23 02:24:10;;;;;;;9.03;7.83;;;1.90;99.90;;;;;;5069673;28;20195;-70
2022/03/23 02:26:37;;;;;;;9.73;8.00;;;1.80;99.90;;;;;;5071431;28;20195;-70
2022/03/23 02:29:04;;;;;;;10.90;8.13;;;1.80;99.90;;;;;;5068745;28;20233;-70
2022/03/23 02:31:30;;;;;;;10.23;7.67;;;1.70;99.90;;;;;;5069042;28;20179;-71
2022/03/23 02:33:56;;;;;;;9.63;7.90;;;1.60;99.90;;;;;;5070097;28;20294;-71
2022/03/23 02:36:22;;;;;;;9.80;7.93;;;1.50;99.90;;;;;;5069386;28;20414;-71
2022/03/23 02:38:47;;;;;;;9.43;7.80;;;1.40;99.90;;;;;;5074740;28;20201;-71
2022/03/23 02:41:13;;;;;;;14.90;8.40;;;1.40;99.90;;;;;;5072470;28;20181;-71
2022/03/23 02:43:39;;;;;;;9.83;8.23;;;1.40;99.90;;;;;;5067839;28;20252;-71
2022/03/23 02:46:05;;;;;;;9.90;7.67;;;1.30;99.90;;;;;;5066068;28;20209;-72
2022/03/23 02:48:31;;;;;;;8.83;7.60;;;1.30;99.90;;;;;;5068891;28;20564;-71
2022/03/23 02:50:57;;;;;;;9.17;7.03;;;1.30;99.90;;;;;;5066304;28;20175;-71
2022/03/23 03:02:14;;;;;;;8.97;7.90;;;1.20;99.90;;;;;;5064374;28;20288;-71
2022/03/23 03:04:39;;;;;;;9.73;7.40;;;1.10;99.90;;;;;;5066521;28;20479;-71
2022/03/23 03:07:05;;;;;;;9.23;7.97;;;1.10;99.90;;;;;;5070709;28;20587;-71
2022/03/23 03:09:31;;;;;;;8.90;7.60;;;1.00;99.90;;;;;;5067314;28;20210;-71
2022/03/23 03:11:57;;;;;;;8.93;7.63;;;1.00;99.90;;;;;;5065795;28;20670;-71
2022/03/23 03:14:23;;;;;;;11.03;8.00;;;1.00;99.90;;;;;;5064860;28;20207;-71
2022/03/23 03:16:48;;;;;;;10.83;8.20;;;1.00;99.90;;;;;;5071715;28;20175;-71
2022/03/23 03:19:14;;;;;;;9.27;7.67;;;0.90;99.90;;;;;;5066745;28;20183;-71
2022/03/23 03:21:40;;;;;;;8.50;7.67;;;0.90;99.90;;;;;;5064052;28;20554;-71
2022/03/23 03:24:06;;;;;;;8.13;7.27;;;0.90;99.90;;;;;;5067285;28;20199;-71
2022/03/23 03:26:32;;;;;;;11.37;7.97;;;0.90;99.90;;;;;;5064904;28;20724;-71
2022/03/23 03:28:58;;;;;;;9.73;7.50;;;1.00;99.90;;;;;;5069906;28;20195;-71
2022/03/23 03:31:24;;;;;;;9.20;7.97;;;1.00;99.90;;;;;;5067324;28;20206;-71
2022/03/23 03:33:50;;;;;;;8.70;7.57;;;1.00;99.90;;;;;;5066272;28;20195;-71
2022/03/23 03:36:16;;;;;;;9.73;8.23;;;0.90;99.90;;;;;;5069106;28;20175;-70
2022/03/23 03:38:42;;;;;;;11.00;8.50;;;0.90;99.90;;;;;;5069346;28;20272;-70
2022/03/23 03:41:09;;;;;;;10.13;8.40;;;0.80;99.90;;;;;;5066729;28;20187;-71
2022/03/23 03:43:35;;;;;;;9.43;7.80;;;0.80;99.90;;;;;;5066440;28;20184;-71
2022/03/23 03:46:01;;;;;;;9.13;8.10;;;0.80;99.90;;;;;;5061784;28;20211;-71
2022/03/23 03:48:28;;;;;;;9.83;8.40;;;0.70;99.90;;;;;;5062248;28;20190;-71
2022/03/23 03:50:53;;;;;;;11.47;8.93;;;0.70;99.90;;;;;;5070035;28;20187;-72
2022/03/23 03:53:19;;;;;;;10.27;8.23;;;0.80;99.90;;;;;;5068121;28;20195;-71
2022/03/23 03:55:45;;;;;;;9.67;8.30;;;0.70;99.90;;;;;;5070683;28;20721;-71
2022/03/23 03:58:12;;;;;;;8.90;8.00;;;0.70;99.90;;;;;;5070706;28;20174;-71
2022/03/23 04:00:38;;;;;;;8.27;7.43;;;0.70;99.90;;;;;;5070021;28;20189;-71
2022/03/23 04:03:05;;;;;;;10.90;8.63;;;0.80;99.90;;;;;;5066139;28;20920;-72
2022/03/23 04:05:33;;;;;;;8.77;7.53;;;0.70;99.90;;;;;;5068951;28;20203;-71
2022/03/23 04:07:59;;;;;;;8.80;8.00;;;0.80;99.90;;;;;;5065354;28;20189;-71
2022/03/23 04:10:25;;;;;;;12.63;8.83;;;0.70;99.90;;;;;;5057819;28;20751;-70
2022/03/23 04:12:51;;;;;;;11.63;8.00;;;0.70;99.90;;;;;;5069250;28;20211;-71
2022/03/23 04:15:20;;;;;;;11.20;9.00;;;0.70;99.90;;;;;;5062533;28;20340;-70
2022/03/23 04:17:46;;;;;;;9.53;7.73;;;0.70;99.90;;;;;;5061573;28;20633;-70
2022/03/23 04:20:11;;;;;;;9.70;7.90;;;0.70;99.90;;;;;;5066825;28;20191;-70
2022/03/23 04:22:40;;;;;;;10.13;8.07;;;0.60;99.90;;;;;;5070669;28;20607;-70
2022/03/23 04:25:11;;;;;;;9.73;8.20;;;0.60;99.90;;;;;;5065802;28;20682;-68
2022/03/23 04:27:52;;;;;;;8.90;8.00;;;0.70;99.90;;;;;;5061645;28;20194;-70
2022/03/23 04:30:19;;;;;;;10.20;8.23;;;0.70;99.90;;;;;;5058788;28;20294;-70
2022/03/23 04:32:46;;;;;;;8.33;7.53;;;0.70;99.90;;;;;;5059694;28;20234;-70
2022/03/23 04:35:12;;;;;;;8.53;7.63;;;0.70;99.90;;;;;;5056599;28;20689;-70
2022/03/23 04:37:39;;;;;;;10.07;8.43;;;0.70;99.90;;;;;;5066033;28;20195;-69
2022/03/23 04:40:07;;;;;;;9.77;8.47;;;0.50;99.90;;;;;;5056004;28;20187;-71
2022/03/23 04:42:34;;;;;;;8.30;7.50;;;0.40;99.90;;;;;;5061561;28;20183;-70
2022/03/23 04:44:59;;;;;;;11.43;9.00;;;0.40;99.90;;;;;;5057277;28;20329;-70
2022/03/23 04:47:25;;;;;;;13.13;8.60;;;0.30;99.90;;;;;;5055534;28;20648;-71
2022/03/23 04:49:51;;;;;;;12.07;8.80;;;0.20;99.90;;;;;;5056424;28;20195;-70
2022/03/23 04:52:17;;;;;;;9.83;8.30;;;0.20;99.90;;;;;;5055954;28;20522;-71
2022/03/23 04:54:43;;;;;;;11.53;8.80;;;0.10;99.90;;;;;;5058989;28;20562;-71
2022/03/23 04:57:09;;;;;;;10.00;7.87;;;0.10;99.90;;;;;;5067781;28;20236;-71
2022/03/23 04:59:35;;;;;;;12.17;8.80;;;0.10;99.90;;;;;;5066900;28;20580;-71
2022/03/23 05:02:00;;;;;;;11.03;8.70;;;0.10;99.90;;;;;;5064532;28;20269;-71
2022/03/23 05:04:26;;;;;;;13.10;8.97;;;0.20;99.90;;;;;;5060076;28;20678;-71
2022/03/23 05:06:52;;;;;;;10.97;8.77;;;0.20;99.90;;;;;;5068274;28;20270;-71
2022/03/23 05:09:17;;;;;;;10.20;8.23;;;0.20;99.90;;;;;;5064735;28;20455;-70
2022/03/23 05:11:43;;;;;;;12.00;8.70;;;0.20;99.90;;;;;;5065835;28;20188;-69
2022/03/23 05:14:08;;;;;;;8.47;7.60;;;0.20;99.90;;;;;;5058904;28;20615;-70
2022/03/23 05:16:34;;;;;;;10.13;8.83;;;0.20;99.90;;;;;;5066036;28;20580;-70
2022/03/23 05:19:00;;;;;;;11.93;8.30;;;0.10;99.90;;;;;;5059798;28;20187;-71
2022/03/23 05:21:25;;;;;;;14.70;7.77;;;0.10;99.90;;;;;;5062157;28;20183;-71
2022/03/23 05:23:51;;;;;;;10.33;8.90;;;0.10;99.90;;;;;;5059225;28;20790;-71
2022/03/23 05:26:17;;;;;;;12.47;8.93;;;0.10;99.90;;;;;;5063572;28;20252;-70
2022/03/23 05:28:43;;;;;;;11.63;8.97;;;0.20;99.90;;;;;;5061659;28;20195;-71
2022/03/23 05:31:09;;;;;;;10.07;8.60;;;0.30;99.90;;;;;;5067435;28;20710;-72
2022/03/23 05:33:35;;;;;;;11.63;8.40;;;0.30;99.90;;;;;;5061262;28;20187;-71
2022/03/23 05:36:01;;;;;;;12.27;9.50;;;0.30;99.90;;;;;;5064057;28;20682;-71
2022/03/23 05:38:26;;;;;;;11.47;8.63;;;0.40;99.90;;;;;;5071878;28;20524;-72
2022/03/23 05:40:52;;;;;;;11.13;9.13;;;0.50;99.90;;;;;;5070717;28;20218;-71
2022/03/23 05:43:19;;;;;;;12.60;9.07;;;0.50;99.90;;;;;;5075646;28;20283;-72
2022/03/23 05:45:45;;;;;;;12.13;10.10;;;0.60;99.90;;;;;;5068316;28;20195;-71
2022/03/23 05:48:11;;;;;;;13.00;8.90;;;0.70;99.90;;;;;;5068176;28;20176;-71
2022/03/23 05:50:37;;;;;;;10.07;8.30;;;0.80;99.90;;;;;;5071938;28;20234;-72
2022/03/23 05:53:03;;;;;;;11.20;9.47;;;0.80;99.90;;;;;;5066401;28;20598;-72
2022/03/23 05:55:29;;;;;;;12.53;8.83;;;0.80;99.90;;;;;;5072131;28;20570;-71
2022/03/23 05:57:55;;;;;;;11.47;8.60;;;0.90;99.90;;;;;;5074959;28;20171;-71
2022/03/23 06:00:21;;;;;;;13.13;8.90;;;1.00;99.90;;;;;;5062776;28;20605;-71
2022/03/23 06:02:47;;;;;;;11.53;8.97;;;1.00;99.90;;;;;;5062922;28;20184;-71
2022/03/23 06:05:13;;;;;;;14.57;9.23;;;1.10;99.90;;;;;;5069298;28;20207;-70
2022/03/23 06:07:39;;;;;;;9.73;8.17;;;1.20;99.90;;;;;;5069549;28;20763;-70
2022/03/23 06:10:08;;;;;;;11.93;8.40;;;1.20;99.90;;;;;;5066327;28;20200;-70
2022/03/23 06:12:34;;;;;;;9.80;8.00;;;1.30;99.90;;;;;;5060169;28;20216;-72
2022/03/23 06:15:00;;;;;;;11.03;8.30;;;1.40;99.90;;;;;;5065773;28;20672;-72
2022/03/23 06:17:25;;;;;;;10.33;8.30;;;1.50;99.90;;;;;;5063175;28;20184;-71
2022/03/23 06:19:51;;;;;;;12.20;8.33;;;1.60;99.90;;;;;;5059675;28;20182;-72
2022/03/23 06:22:18;;;;;;;11.13;8.00;;;1.70;99.90;;;;;;5059922;28;20189;-73
2022/03/23 06:24:43;;;;;;;9.27;8.27;;;1.80;99.90;;;;;;5061145;28;20203;-69
2022/03/23 06:27:09;;;;;;;8.63;7.33;;;1.90;99.90;;;;;;5068093;28;20209;-70
2022/03/23 06:29:35;;;;;;;10.50;8.30;;;2.00;99.90;;;;;;5064119;28;20290;-69
2022/03/23 06:32:00;;;;;;;11.60;8.40;;;2.10;99.90;;;;;;5068794;28;20225;-69
2022/03/23 06:34:26;;;;;;;9.93;8.13;;;2.30;99.90;;;;;;5067815;28;20206;-70
2022/03/23 06:36:51;;;;;;;9.10;7.03;;;2.30;99.90;;;;;;5060145;28;20190;-69
2022/03/23 06:39:17;;;;;;;8.00;6.37;;;2.40;99.90;;;;;;5058007;28;20190;-69
2022/03/23 06:41:43;;;;;;;14.53;9.00;;;2.50;99.90;;;;;;5069715;28;20190;-70
2022/03/23 06:44:08;;;;;;;10.80;8.60;;;2.60;99.90;;;;;;5064738;28;20218;-70
2022/03/23 06:46:34;;;;;;;13.27;9.77;;;2.60;99.90;;;;;;5062553;28;20213;-69
2022/03/23 06:49:00;;;;;;;12.80;8.80;;;2.70;99.90;;;;;;5064734;28;20207;-67
2022/03/23 06:51:26;;;;;;;13.97;8.83;;;2.80;99.90;;;;;;5061236;28;20465;-68
2022/03/23 06:53:51;;;;;;;11.00;9.37;;;2.90;99.90;;;;;;5062013;28;20195;-69
2022/03/23 06:56:17;;;;;;;14.30;9.23;;;3.00;99.90;;;;;;5072809;28;20278;-69
2022/03/23 06:58:43;;;;;;;21.90;9.57;;;3.00;99.90;;;;;;5073991;28;20228;-70
2022/03/23 07:01:08;;;;;;;10.70;9.10;;;3.10;99.90;;;;;;5062993;28;20198;-70
2022/03/23 07:03:34;;;;;;;13.87;9.57;;;3.10;99.90;;;;;;5065186;28;20292;-69
2022/03/23 07:05:59;;;;;;;13.93;9.67;;;3.20;99.90;;;;;;5061699;28;20550;-69
2022/03/23 07:11:20;;;;;;;13.27;9.23;;;3.30;99.90;;;;;;5052800;28;20362;-68
2022/03/23 07:13:46;;;;;;;11.00;9.70;;;3.40;99.90;;;;;;5079412;28;20258;-69
2022/03/23 07:16:12;;;;;;;13.40;9.73;;;3.60;99.90;;;;;;5069595;28;20187;-71
2022/03/23 07:18:37;;;;;;;11.53;9.67;;;3.60;99.90;;;;;;5068121;28;20773;-69
2022/03/23 07:21:04;;;;;;;9.57;8.63;;;3.70;99.90;;;;;;5060553;28;20176;-68
2022/03/23 07:23:30;;;;;;;10.83;8.87;;;3.80;99.90;;;;;;5063284;28;20219;-68
2022/03/23 07:25:56;;;;;;;12.27;9.53;;;3.90;99.90;;;;;;5054441;28;20222;-70
2022/03/23 07:28:22;;;;;;;11.67;9.63;;;4.00;99.90;;;;;;5059039;28;20179;-69
2022/03/23 07:30:47;;;;;;;11.43;9.07;;;4.10;99.90;;;;;;5058924;28;20206;-70
2022/03/23 07:33:13;;;;;;;14.17;8.57;;;4.20;99.90;;;;;;5072369;28;20203;-68
2022/03/23 07:35:39;;;;;;;10.47;8.00;;;4.40;99.90;;;;;;5080328;28;20203;-69
2022/03/23 07:38:04;;;;;;;10.30;8.77;;;4.50;99.90;;;;;;5068405;28;20225;-69
2022/03/23 07:40:30;;;;;;;14.20;9.47;;;4.60;99.90;;;;;;5069451;28;20182;-70
2022/03/23 07:42:55;;;;;;;10.43;8.73;;;4.70;99.90;;;;;;5066945;28;20190;-70
2022/03/23 07:45:21;;;;;;;10.87;9.70;;;4.70;99.90;;;;;;5073104;28;20215;-70
2022/03/23 07:47:47;;;;;;;11.37;8.47;;;4.90;99.90;;;;;;5080806;28;20181;-70
2022/03/23 07:50:12;;;;;;;11.10;8.10;;;5.00;99.90;;;;;;5077220;28;20202;-72
2022/03/23 07:52:38;;;;;;;10.27;8.83;;;5.20;99.90;;;;;;5060854;28;20213;-70
2022/03/23 07:55:04;;;;;;;10.87;8.20;;;5.20;99.90;;;;;;5073967;28;20689;-72
2022/03/23 07:57:30;;;;;;;10.00;8.97;;;5.40;99.90;;;;;;5073165;28;20604;-71
2022/03/23 07:59:55;;;;;;;9.97;8.37;;;5.50;99.90;;;;;;5067446;28;20256;-71
2022/03/23 08:02:26;;;;;;;10.10;8.60;;;5.60;99.90;;;;;;5067582;28;20191;-71
2022/03/23 08:04:51;;;;;;;9.90;8.87;;;5.70;99.90;;;;;;5068210;28;20205;-70
2022/03/23 08:07:17;;;;;;;9.97;8.23;;;5.70;99.90;;;;;;5061355;28;20273;-72
2022/03/23 08:09:43;;;;;;;9.63;8.20;;;5.90;99.90;;;;;;5063430;28;20290;-71
2022/03/23 08:12:09;;;;;;;11.87;8.87;;;5.90;99.90;;;;;;5060391;28;20266;-72
2022/03/23 08:14:35;;;;;;;12.10;9.27;;;6.00;99.90;;;;;;5065230;28;20192;-72
2022/03/23 08:17:00;;;;;;;9.63;8.30;;;6.10;99.90;;;;;;5065250;28;20241;-71
2022/03/23 08:19:26;;;;;;;9.93;8.60;;;6.20;99.90;;;;;;5066010;28;20183;-71
2022/03/23 08:21:52;;;;;;;9.97;8.97;;;6.30;99.90;;;;;;5063863;28;20215;-71
2022/03/23 08:24:19;;;;;;;10.00;8.50;;;6.40;99.90;;;;;;5065040;28;20207;-71
2022/03/23 08:26:45;;;;;;;9.73;8.57;;;6.60;99.90;;;;;;5065653;28;20221;-71
2022/03/23 08:29:10;;;;;;;9.33;8.33;;;6.70;99.90;;;;;;5066553;28;20207;-71
2022/03/23 08:31:36;;;;;;;9.30;8.40;;;6.80;99.90;;;;;;5063973;28;20297;-70
2022/03/23 08:34:04;;;;;;;10.67;7.97;;;7.00;99.90;;;;;;5069860;28;20251;-69
2022/03/23 08:36:30;;;;;;;9.63;8.67;;;7.20;97.50;;;;;;5061571;28;20269;-69
2022/03/23 08:38:55;;;;;;;10.47;9.13;;;7.30;97.70;;;;;;5058915;28;20274;-71
2022/03/23 08:41:22;;;;;;;12.37;8.23;;;7.40;97.50;;;;;;5058618;28;20183;-71
2022/03/23 08:43:48;;;;;;;9.73;8.73;;;7.60;97.40;;;;;;5063745;28;20179;-70
2022/03/23 08:46:14;;;;;;;10.27;8.87;;;7.70;96.90;;;;;;5066683;28;20266;-72
2022/03/23 08:48:40;;;;;;;9.80;8.40;;;7.90;94.80;;;;;;5066929;28;20258;-70
2022/03/23 08:51:06;;;;;;;8.93;6.83;;;8.10;93.60;;;;;;5056140;28;20760;-73
2022/03/23 08:53:32;;;;;;;8.30;7.60;;;8.40;90.50;;;;;;5071260;28;20269;-74
2022/03/23 08:55:59;;;;;;;11.35;8.23;;;8.60;90.00;;;;;;5084665;28;20202;-74
2022/03/23 08:58:25;;;;;;;11.27;8.05;;;9.00;89.80;;;;;;5066782;28;20179;-72
2022/03/23 09:00:50;;;;;;;8.63;7.75;;;10.00;85.80;;;;;;5062141;28;20175;-73
2022/03/23 09:03:16;;;;;;;10.70;7.25;;;12.40;76.50;;;;;;5063632;28;20184;-72
2022/03/23 09:05:41;;;;;;;8.55;6.93;;;15.50;63.30;;;;;;5060763;28;20289;-76
2022/03/23 09:08:11;;;;;;;7.85;6.43;;;18.20;51.50;;;;;;5066591;28;20581;-77
2022/03/23 09:10:37;;;;;;;7.18;6.35;;;20.60;45.10;;;;;;5066245;28;20208;-77
2022/03/23 09:13:28;;;;;;;8.05;7.25;;;22.50;40.50;;;;;;5069983;28;20184;-79
2022/03/23 09:15:53;;;;;;;9.07;6.47;;;24.00;37.50;;;;;;5075243;28;20281;-77
2022/03/23 09:18:19;;;;;;;8.48;6.07;;;24.80;34.10;;;;;;5067510;28;20218;-75
2022/03/23 09:20:45;;;;;;;8.30;6.55;;;25.00;33.00;;;;;;5069018;28;20203;-81
2022/03/23 09:23:12;;;;;;;7.82;7.03;;;25.30;34.00;;;;;;5061296;28;20224;-76
2022/03/23 09:25:39;;;;;;;8.65;7.18;;;26.20;34.10;;;;;;5064842;28;20283;-75
2022/03/23 09:28:05;;;;;;;8.27;6.90;;;27.20;33.00;;;;;;5066529;28;20246;-75
2022/03/23 09:30:31;;;;;;;11.48;6.82;;;28.30;31.00;;;;;;5073604;28;20338;-76
2022/03/23 09:32:57;;;;;;;15.38;7.47;;;28.90;30.00;;;;;;5073544;28;20253;-77
2022/03/23 09:35:23;;;;;;;17.48;7.97;;;29.70;29.00;;;;;;5063049;28;20228;-76
2022/03/23 09:37:49;;;;;;;8.38;6.78;;;29.90;29.30;;;;;;5065480;28;20179;-76
2022/03/23 09:40:24;;;;;;;6.40;5.68;;;30.40;27.80;;;;;;5069297;28;20171;-77
2022/03/23 09:42:50;;;;;;;12.27;6.30;;;30.80;28.00;;;;;;5065497;28;20541;-76
2022/03/23 09:45:45;;;;;;;6.45;5.57;;;31.60;27.70;;;;;;5068413;28;20200;-77
2022/03/23 09:48:12;;;;;;;7.35;5.90;;;31.10;25.90;;;;;;5061138;28;20167;-76
2022/03/23 09:50:44;;;;;;;36.22;9.32;;;29.80;26.80;;;;;;5064849;28;20565;-76
2022/03/23 09:53:10;;;;;;;13.15;6.30;;;29.40;27.90;;;;;;5066036;28;20167;-75
2022/03/23 09:55:36;;;;;;;21.55;7.97;;;30.40;27.30;;;;;;5066189;28;20235;-75
2022/03/23 09:58:04;;;;;;;11.60;5.38;;;31.40;27.20;;;;;;5060556;28;20191;-75
2022/03/23 10:00:41;;;;;;;7.10;5.38;;;32.30;26.70;;;;;;5070985;28;20183;-73
2022/03/23 10:03:29;;;;;;;11.70;5.90;;;31.70;25.80;;;;;;5059058;28;20171;-74
2022/03/23 10:06:14;;;;;;;21.42;7.55;;;31.60;26.60;;;;;;5066295;28;20282;-72
2022/03/23 10:09:17;;;;;;;8.18;5.38;;;31.80;26.80;;;;;;5065340;28;20185;-72
2022/03/23 10:12:01;;;;;;;9.77;5.72;;;32.90;26.10;;;;;;5075035;28;20178;-72
2022/03/23 10:14:46;;;;;;;9.50;6.32;;;33.20;25.90;;;;;;5063118;28;20199;-73
2022/03/23 10:18:01;;;;;;;6.22;5.20;;;33.50;25.60;;;;;;5061204;28;20186;-72
2022/03/23 10:20:27;;;;;;;5.57;5.00;;;33.00;25.50;;;;;;5061652;28;20281;-73
2022/03/23 10:22:54;;;;;;;5.47;4.97;;;31.60;25.90;;;;;;5066313;28;20666;-73
2022/03/23 10:25:26;;;;;;;7.45;5.18;;;31.60;25.80;;;;;;5067717;28;20313;-74
2022/03/23 10:27:55;;;;;;;4.65;4.18;;;31.70;25.90;;;;;;5067256;28;20564;-73
2022/03/23 10:30:36;;;;;;;5.40;4.75;;;32.40;25.00;;;;;;5066319;28;20356;-73
2022/03/23 10:33:02;;;;;;;7.57;5.00;;;32.50;25.50;;;;;;5066203;28;20179;-73
2022/03/23 10:35:37;;;;;;;4.78;4.40;;;33.30;26.20;;;;;;5065845;28;20199;-73
2022/03/23 10:38:20;;;;;;;5.65;5.03;;;34.00;24.60;;;;;;5064239;28;20171;-73
2022/03/23 10:40:50;;;;;;;6.57;5.28;;;34.30;25.80;;;;;;5060397;28;20194;-72
2022/03/23 10:43:22;;;;;;;4.90;4.50;;;35.20;24.80;;;;;;5060034;28;20186;-71
2022/03/23 10:45:48;;;;;;;5.38;4.93;;;34.50;25.40;;;;;;5067684;28;20288;-70
2022/03/23 10:48:17;;;;;;;4.93;4.40;;;35.00;25.40;;;;;;5063957;28;20238;-72
2022/03/23 10:50:55;;;;;;;5.18;4.78;;;35.60;24.80;;;;;;5065309;28;20202;-72
2022/03/23 10:53:31;;;;;;;4.90;4.45;;;35.90;24.20;;;;;;5066414;28;20210;-72
2022/03/23 10:55:57;;;;;;;5.38;4.88;;;36.10;23.70;;;;;;5061029;28;20724;-72
2022/03/23 10:58:25;;;;;;;5.07;4.57;;;36.70;24.30;;;;;;5063784;28;20186;-71
2022/03/23 11:00:54;;;;;;;4.20;3.90;;;36.40;24.40;;;;;;5062697;28;20189;-70
2022/03/23 11:03:19;;;;;;;6.57;4.25;;;36.20;24.50;;;;;;5059336;28;20190;-70
2022/03/23 11:05:47;;;;;;;4.32;3.97;;;36.50;23.80;;;;;;5057268;28;20697;-69
2022/03/23 11:08:24;;;;;;;4.47;4.18;;;35.70;23.80;;;;;;5061327;28;20183;-70
2022/03/23 11:16:45;;;;;;;3.25;2.97;;;35.10;23.00;;;;;;5055510;28;20194;-69
2022/03/23 11:19:17;;;;;;;3.53;3.20;;;34.60;23.50;;;;;;5069971;28;20217;-70
2022/03/23 11:22:05;;;;;;;3.92;3.65;;;35.30;23.60;;;;;;5068093;28;20540;-68
2022/03/23 11:24:40;;;;;;;6.55;3.67;;;34.60;23.00;;;;;;5064035;28;20201;-70
2022/03/23 11:27:08;;;;;;;3.83;3.33;;;34.70;23.70;;;;;;5056258;28;20198;-70
2022/03/23 11:29:35;;;;;;;3.58;3.35;;;35.10;23.90;;;;;;5056706;28;20210;-71
2022/03/23 11:32:04;;;;;;;5.35;3.70;;;35.60;22.90;;;;;;5060123;28;20233;-70
2022/03/23 11:34:36;;;;;;;3.88;3.58;;;35.80;23.30;;;;;;5058390;28;20191;-71
2022/03/23 11:37:03;;;;;;;4.20;3.90;;;36.40;23.10;;;;;;5062700;28;20244;-69
2022/03/23 11:39:30;;;;;;;4.32;3.38;;;36.40;22.80;;;;;;5061804;28;20513;-69
2022/03/23 11:41:58;;;;;;;2.92;2.70;;;37.30;23.00;;;;;;5060229;28;20623;-68
2022/03/23 11:44:25;;;;;;;3.55;3.30;;;38.20;22.60;;;;;;5061997;28;20191;-69
2022/03/23 11:46:55;;;;;;;3.55;3.33;;;38.70;21.80;;;;;;5062495;28;20232;-71
2022/03/23 11:49:32;;;;;;;3.45;3.25;;;38.00;23.00;;;;;;5064788;28;20210;-71
2022/03/23 11:52:13;;;;;;;3.58;3.38;;;38.20;23.10;;;;;;5061288;28;20179;-72
2022/03/23 11:57:51;;;;;;;3.80;3.50;;;37.70;22.10;;;;;;5069991;28;20177;-70
2022/03/23 12:00:17;;;;;;;3.95;3.75;;;38.00;21.70;;;;;;5065651;28;20293;-71
2022/03/23 12:02:42;;;;;;;3.45;3.15;;;37.70;22.80;;;;;;5068447;28;20574;-69
2022/03/23 12:05:29;;;;;;;4.22;3.83;;;36.60;23.20;;;;;;5061432;28;20314;-69
2022/03/23 12:07:55;;;;;;;3.65;3.35;;;37.00;22.30;;;;;;5058636;28;20232;-71
2022/03/23 12:10:23;;;;;;;5.38;3.45;;;37.40;22.20;;;;;;5061515;28;20203;-71
2022/03/23 12:12:49;;;;;;;5.55;3.92;;;37.40;22.10;;;;;;5070858;28;20224;-71
2022/03/23 12:15:25;;;;;;;4.43;4.03;;;35.70;22.80;;;;;;5064848;28;20207;-70
2022/03/23 12:17:54;;;;;;;4.18;3.50;;;35.30;24.20;;;;;;5067067;28;20541;-69
2022/03/23 12:20:41;;;;;;;3.83;3.53;;;36.40;23.70;;;;;;5065723;28;20225;-68
2022/03/23 12:23:10;;;;;;;3.88;3.63;;;36.20;23.00;;;;;;5064216;28;20673;-73
2022/03/23 12:26:11;;;;;;;3.65;3.30;;;35.70;23.50;;;;;;5062578;28;20276;-69
2022/03/23 12:28:53;;;;;;;4.28;3.40;;;36.30;24.10;;;;;;5069487;28;20228;-71
2022/03/23 12:31:19;;;;;;;3.47;3.25;;;36.50;23.90;;;;;;5067271;28;20187;-71
2022/03/23 12:34:26;;;;;;;4.38;4.03;;;36.50;23.40;;;;;;5068719;28;20190;-72
2022/03/23 12:36:56;;;;;;;3.55;3.25;;;36.30;23.60;;;;;;5051981;28;20179;-71
2022/03/23 12:39:46;;;;;;;4.07;3.58;;;37.00;24.00;;;;;;5062786;28;20273;-73
2022/03/23 12:42:12;;;;;;;3.90;3.60;;;36.80;22.90;;;;;;5065979;28;20605;-71
2022/03/23 12:44:40;;;;;;;4.97;3.67;;;36.60;23.50;;;;;;5064352;28;20465;-71
2022/03/23 12:47:10;;;;;;;3.90;3.70;;;35.90;23.40;;;;;;5068086;28;20328;-71
2022/03/23 12:58:09;;;;;;;3.85;3.40;;;37.50;22.80;;;;;;5071499;28;20186;-71
2022/03/23 13:00:47;;;;;;;4.10;3.60;;;36.60;23.50;;;;;;5059514;28;20233;-72
2022/03/23 13:03:19;;;;;;;3.80;3.50;;;35.70;22.70;;;;;;5065597;28;20174;-73
2022/03/23 13:05:59;;;;;;;3.72;3.45;;;34.90;23.40;;;;;;5068607;28;20206;-73
2022/03/23 13:08:30;;;;;;;4.53;3.70;;;33.50;24.10;;;;;;5071288;28;20677;-72
2022/03/23 13:11:00;;;;;;;3.50;3.20;;;32.70;25.20;;;;;;5068997;28;20210;-73
2022/03/23 13:13:27;;;;;;;3.85;3.55;;;32.10;25.70;;;;;;5063871;28;20549;-73
2022/03/23 13:15:53;;;;;;;5.13;3.92;;;31.90;25.70;;;;;;5058699;28;20241;-73
2022/03/23 13:18:27;;;;;;;6.28;3.80;;;31.70;25.80;;;;;;5059911;28;20641;-74
2022/03/23 13:20:54;;;;;;;4.72;3.90;;;32.20;24.80;;;;;;5064220;28;20179;-73
2022/03/23 13:23:21;;;;;;;5.47;3.67;;;32.80;24.80;;;;;;5062323;28;20199;-73